Time;durP1;ratioP1;P1;durP2;ratioP2;P2;SDS_P1;SDS_P2;PMS_P1;PMS_P2;Temp;Humidity;BMP_temperature;BMP_pressure;BME280_temperature;BME280_humidity;BME280_pressure;Samples;Min_cycle;Max_cycle;Signal;HPM_P1;HPM_P2
2021/04/08 00:00:38;;;;;;;13.23;6.00;;;0.00;99.90;;;;;;4938053;29;20269;-93
2021/04/08 00:03:04;;;;;;;14.07;5.50;;;0.00;99.90;;;;;;4937369;29;20651;-93
2021/04/08 00:05:29;;;;;;;14.33;6.30;;;0.00;99.90;;;;;;4937866;29;20180;-93
2021/04/08 00:07:55;;;;;;;13.30;6.87;;;0.00;99.90;;;;;;4937717;29;20180;-92
2021/04/08 00:10:21;;;;;;;12.33;5.53;;;0.00;99.90;;;;;;4920712;29;20701;-94
2021/04/08 00:12:46;;;;;;;12.33;5.83;;;0.00;99.90;;;;;;4938101;29;20611;-93
2021/04/08 00:15:14;;;;;;;16.53;6.30;;;-0.10;99.90;;;;;;4920880;29;20544;-93
2021/04/08 00:17:40;;;;;;;12.60;6.17;;;0.00;99.90;;;;;;4937249;29;20234;-92
2021/04/08 00:20:12;;;;;;;14.07;6.40;;;0.00;99.90;;;;;;4937097;29;20232;-93
2021/04/08 00:22:38;;;;;;;10.70;6.50;;;0.00;99.90;;;;;;4941084;29;20181;-94
2021/04/08 00:25:04;;;;;;;10.23;5.37;;;0.00;99.90;;;;;;4937355;29;20266;-91
2021/04/08 00:27:30;;;;;;;12.03;6.03;;;0.00;99.90;;;;;;4939122;29;20187;-93
2021/04/08 00:29:56;;;;;;;12.17;5.23;;;0.00;99.90;;;;;;4939434;29;20183;-94
2021/04/08 00:32:21;;;;;;;9.87;5.07;;;0.00;99.90;;;;;;4936998;29;20668;-94
2021/04/08 00:34:47;;;;;;;15.23;4.50;;;0.00;99.90;;;;;;4920711;29;20542;-94
2021/04/08 00:37:13;;;;;;;12.10;6.03;;;0.00;99.90;;;;;;4936869;29;20543;-94
2021/04/08 00:39:38;;;;;;;10.53;5.37;;;0.00;99.90;;;;;;4937038;29;20304;-96
2021/04/08 00:42:06;;;;;;;10.10;6.00;;;0.00;99.90;;;;;;4920225;29;20181;-94
2021/04/08 00:44:32;;;;;;;11.90;5.70;;;0.00;99.90;;;;;;4920002;29;20184;-94
2021/04/08 00:46:58;;;;;;;11.17;6.27;;;0.00;99.90;;;;;;4936914;29;20205;-94
2021/04/08 00:49:23;;;;;;;13.87;5.20;;;0.10;99.90;;;;;;4921855;29;20195;-92
2021/04/08 00:51:49;;;;;;;13.83;5.70;;;0.10;99.90;;;;;;4940731;29;20286;-93
2021/04/08 00:54:15;;;;;;;11.60;5.33;;;0.00;99.90;;;;;;4938704;29;20281;-94
2021/04/08 00:56:42;;;;;;;12.00;5.93;;;0.00;99.90;;;;;;4940511;29;20300;-92
2021/04/08 00:59:08;;;;;;;14.90;6.40;;;0.10;99.90;;;;;;4940125;29;20306;-92
2021/04/08 01:01:34;;;;;;;15.33;5.97;;;0.10;99.90;;;;;;4938706;29;20204;-92
2021/04/08 01:04:00;;;;;;;10.93;5.50;;;0.10;99.90;;;;;;4939791;29;20176;-92
2021/04/08 01:06:25;;;;;;;13.13;5.90;;;0.10;99.90;;;;;;4939672;29;20179;-93
2021/04/08 01:08:51;;;;;;;12.47;6.03;;;0.10;99.90;;;;;;4937221;29;20713;-93
2021/04/08 01:11:17;;;;;;;10.03;5.10;;;0.10;99.90;;;;;;4919763;29;20644;-93
2021/04/08 01:13:43;;;;;;;11.37;5.83;;;0.10;99.90;;;;;;4937289;29;20270;-93
2021/04/08 01:16:16;;;;;;;15.67;5.97;;;0.10;99.90;;;;;;4940264;29;20197;-92
2021/04/08 01:18:44;;;;;;;11.63;5.50;;;0.20;99.90;;;;;;4939427;29;20204;-92
2021/04/08 01:21:33;;;;;;;16.17;6.10;;;0.10;99.90;;;;;;4940483;29;20279;-92
2021/04/08 01:24:48;;;;;;;15.50;6.37;;;0.10;99.90;;;;;;4936048;29;20182;-92
2021/04/08 01:27:16;;;;;;;8.23;4.43;;;0.10;99.90;;;;;;4920071;29;20188;-90
2021/04/08 01:30:00;;;;;;;13.23;5.20;;;0.10;99.90;;;;;;4938354;29;20180;-91
2021/04/08 01:32:28;;;;;;;16.77;5.80;;;0.10;99.90;;;;;;4936774;29;20174;-91
2021/04/08 01:34:57;;;;;;;16.07;5.60;;;0.00;99.90;;;;;;4935018;29;20241;-92
2021/04/08 01:37:28;;;;;;;13.73;6.40;;;0.00;99.90;;;;;;4918461;29;20187;-92
2021/04/08 01:39:57;;;;;;;9.97;4.97;;;0.00;99.90;;;;;;4934903;29;20211;-92
2021/04/08 01:42:24;;;;;;;11.17;5.37;;;0.00;99.90;;;;;;4935746;29;20187;-92
2021/04/08 01:44:52;;;;;;;11.20;4.93;;;0.10;99.90;;;;;;4931955;29;20173;-93
2021/04/08 01:47:18;;;;;;;14.23;6.40;;;0.00;99.90;;;;;;4948799;29;20268;-91
2021/04/08 01:49:46;;;;;;;12.37;4.77;;;0.00;99.90;;;;;;4943040;29;20216;-94
2021/04/08 01:52:16;;;;;;;14.40;6.90;;;0.10;99.90;;;;;;4935965;29;20180;-93
2021/04/08 01:54:45;;;;;;;13.13;6.43;;;0.10;99.90;;;;;;4934756;29;20190;-93
2021/04/08 01:57:13;;;;;;;13.07;6.57;;;0.00;99.90;;;;;;4935773;29;20199;-93
2021/04/08 01:59:43;;;;;;;10.33;5.17;;;0.10;99.90;;;;;;4935854;29;20728;-94
2021/04/08 02:02:09;;;;;;;15.07;6.77;;;0.10;99.90;;;;;;4936122;29;20204;-94
2021/04/08 02:04:37;;;;;;;18.03;6.27;;;0.00;99.90;;;;;;4934316;29;20597;-94
2021/04/08 02:07:04;;;;;;;11.77;6.27;;;0.00;99.90;;;;;;4919159;29;20191;-93
2021/04/08 02:09:31;;;;;;;12.57;4.87;;;0.10;99.90;;;;;;4935536;29;20306;-94
2021/04/08 02:11:58;;;;;;;12.67;6.67;;;0.00;99.90;;;;;;4938077;29;20246;-92
2021/04/08 02:14:26;;;;;;;19.20;7.53;;;0.00;99.90;;;;;;4926325;29;20190;-92
2021/04/08 02:16:52;;;;;;;18.67;6.53;;;0.00;99.90;;;;;;4946186;29;20189;-93
2021/04/08 02:19:20;;;;;;;16.67;7.63;;;0.00;99.90;;;;;;4931234;29;20698;-92
2021/04/08 02:21:50;;;;;;;16.73;6.53;;;0.00;99.90;;;;;;4941179;29;20187;-95
2021/04/08 02:24:17;;;;;;;17.83;6.47;;;-0.10;99.90;;;;;;4940252;29;20525;-94
2021/04/08 02:26:43;;;;;;;15.73;6.70;;;-0.10;99.90;;;;;;4941884;29;20209;-93
2021/04/08 02:29:14;;;;;;;12.83;6.50;;;-0.10;99.90;;;;;;4941688;29;20651;-93
2021/04/08 02:31:40;;;;;;;13.40;6.50;;;-0.10;99.90;;;;;;4942249;29;20651;-93
2021/04/08 02:34:08;;;;;;;11.27;6.23;;;-0.10;99.90;;;;;;4925188;29;20203;-93
2021/04/08 02:36:36;;;;;;;13.93;6.97;;;-0.10;99.90;;;;;;4940690;29;20750;-93
2021/04/08 02:39:07;;;;;;;17.03;7.20;;;-0.20;99.90;;;;;;4939699;29;20326;-95
2021/04/08 02:41:38;;;;;;;16.07;7.50;;;-0.20;99.90;;;;;;4948266;29;20175;-93
2021/04/08 02:44:05;;;;;;;16.53;6.77;;;-0.30;99.90;;;;;;4939435;29;20282;-94
2021/04/08 02:46:30;;;;;;;16.90;8.23;;;-0.20;99.90;;;;;;4922389;29;20251;-94
2021/04/08 02:48:57;;;;;;;13.37;6.33;;;-0.30;99.90;;;;;;4922517;29;20277;-93
2021/04/08 02:51:40;;;;;;;15.23;6.97;;;-0.30;99.90;;;;;;4939172;29;20191;-94
2021/04/08 02:54:14;;;;;;;14.07;6.43;;;-0.30;99.90;;;;;;4939269;29;20235;-94
2021/04/08 02:56:51;;;;;;;17.93;7.03;;;-0.30;99.90;;;;;;4938490;29;20169;-94
2021/04/08 02:59:25;;;;;;;15.47;7.63;;;-0.40;99.90;;;;;;4922064;29;20215;-94
2021/04/08 03:01:58;;;;;;;13.67;7.33;;;-0.40;99.90;;;;;;4938485;29;20179;-93
2021/04/08 03:04:24;;;;;;;19.93;6.93;;;-0.40;99.90;;;;;;4938526;29;20183;-93
2021/04/08 03:06:51;;;;;;;13.90;6.80;;;-0.40;99.90;;;;;;4938228;29;20188;-93
2021/04/08 03:09:28;;;;;;;15.60;6.67;;;-0.40;99.90;;;;;;4921999;29;20242;-91
2021/04/08 03:11:56;;;;;;;15.57;7.20;;;-0.40;99.90;;;;;;4938444;29;20626;-91
2021/04/08 03:14:22;;;;;;;19.43;8.07;;;-0.40;99.90;;;;;;4937511;29;20183;-94
2021/04/08 03:16:50;;;;;;;14.90;6.27;;;-0.40;99.90;;;;;;4937890;29;20191;-93
2021/04/08 03:19:22;;;;;;;16.20;7.53;;;-0.30;99.90;;;;;;4938366;29;20220;-93
2021/04/08 03:21:48;;;;;;;17.97;7.77;;;-0.30;99.90;;;;;;4937966;29;20181;-91
2021/04/08 03:24:16;;;;;;;17.37;8.33;;;-0.40;99.90;;;;;;4937534;29;20271;-93
2021/04/08 03:26:43;;;;;;;22.43;8.73;;;-0.40;99.90;;;;;;4935950;29;20228;-92
2021/04/08 03:29:11;;;;;;;17.17;7.73;;;-0.40;99.90;;;;;;4937223;29;20203;-92
2021/04/08 03:31:43;;;;;;;23.37;7.77;;;-0.40;99.90;;;;;;4937806;29;20184;-93
2021/04/08 03:34:09;;;;;;;18.03;7.63;;;-0.40;99.90;;;;;;4938164;29;20673;-92
2021/04/08 03:36:35;;;;;;;24.50;11.07;;;-0.40;99.90;;;;;;4920303;29;20208;-90
2021/04/08 03:39:01;;;;;;;28.97;12.00;;;-0.40;99.90;;;;;;4937185;29;20282;-93
2021/04/08 03:41:28;;;;;;;34.43;16.70;;;-0.30;99.90;;;;;;4937080;29;20579;-91
2021/04/08 03:43:54;;;;;;;19.63;8.73;;;-0.30;99.90;;;;;;4938027;29;20200;-93
2021/04/08 03:46:20;;;;;;;23.00;9.80;;;-0.30;99.90;;;;;;4936916;29;20240;-94
2021/04/08 03:48:48;;;;;;;28.77;10.67;;;-0.30;99.90;;;;;;4937117;29;20195;-94
2021/04/08 03:51:16;;;;;;;17.17;9.23;;;-0.30;99.90;;;;;;4921112;29;20207;-94
2021/04/08 03:53:43;;;;;;;21.17;8.93;;;-0.30;99.90;;;;;;4937792;29;20233;-93
2021/04/08 03:56:10;;;;;;;16.70;6.93;;;-0.30;99.90;;;;;;4921271;29;20187;-93
2021/04/08 03:58:37;;;;;;;22.90;9.03;;;-0.20;99.90;;;;;;4921366;28;20212;-93
2021/04/08 04:01:04;;;;;;;22.03;8.97;;;-0.20;99.90;;;;;;4953633;29;20265;-90
2021/04/08 04:03:30;;;;;;;27.53;10.43;;;-0.20;99.90;;;;;;4937184;29;20197;-93
2021/04/08 04:05:57;;;;;;;18.23;8.43;;;-0.10;99.90;;;;;;4953638;28;20187;-93
2021/04/08 04:08:23;;;;;;;24.37;9.97;;;-0.10;99.90;;;;;;4952689;28;20208;-93
2021/04/08 04:10:48;;;;;;;19.27;9.40;;;-0.10;99.90;;;;;;4954302;28;20234;-91
2021/04/08 04:13:16;;;;;;;23.83;10.03;;;-0.20;99.90;;;;;;4953176;28;20211;-91
2021/04/08 04:15:46;;;;;;;23.00;10.40;;;-0.10;99.90;;;;;;4937722;29;20567;-94
2021/04/08 04:18:16;;;;;;;24.97;11.43;;;-0.10;99.90;;;;;;4971659;28;20190;-93
2021/04/08 04:20:43;;;;;;;32.23;12.30;;;-0.10;99.90;;;;;;4965537;28;20191;-90
2021/04/08 04:23:09;;;;;;;24.60;11.10;;;-0.10;99.90;;;;;;4955164;28;20206;-90
2021/04/08 04:25:34;;;;;;;23.17;11.07;;;0.00;99.90;;;;;;4954114;28;20668;-90
2021/04/08 04:28:00;;;;;;;23.97;10.70;;;0.00;99.90;;;;;;4943870;29;20188;-91
2021/04/08 04:30:26;;;;;;;23.60;12.67;;;0.00;99.90;;;;;;4958913;28;20697;-91
2021/04/08 04:32:55;;;;;;;25.27;11.40;;;0.10;99.90;;;;;;4941839;29;20201;-91
2021/04/08 04:35:21;;;;;;;22.93;10.43;;;0.10;99.90;;;;;;4958458;28;20199;-91
2021/04/08 04:37:47;;;;;;;25.67;12.17;;;0.10;99.90;;;;;;4937451;28;20207;-90
2021/04/08 04:40:14;;;;;;;26.10;13.30;;;0.10;99.90;;;;;;4961638;28;20230;-90
2021/04/08 04:42:39;;;;;;;29.37;10.83;;;0.20;99.90;;;;;;4948839;29;20195;-90
2021/04/08 04:45:06;;;;;;;25.80;12.50;;;0.20;99.90;;;;;;4962710;28;20707;-91
2021/04/08 04:47:32;;;;;;;22.60;11.33;;;0.20;99.90;;;;;;4955172;28;20237;-91
2021/04/08 04:49:58;;;;;;;28.33;11.77;;;0.30;99.90;;;;;;4963295;28;20589;-90
2021/04/08 04:52:24;;;;;;;24.33;10.53;;;0.40;99.90;;;;;;4955035;28;20233;-90
2021/04/08 04:54:49;;;;;;;28.07;10.47;;;0.40;99.90;;;;;;4940425;29;20217;-92
2021/04/08 04:57:15;;;;;;;27.07;11.40;;;0.40;99.90;;;;;;4955347;28;20662;-92
2021/04/08 04:59:41;;;;;;;24.67;11.53;;;0.50;99.90;;;;;;4953350;28;20226;-89
2021/04/08 05:02:10;;;;;;;23.60;11.90;;;0.60;99.90;;;;;;4950373;29;20206;-90
2021/04/08 05:04:37;;;;;;;22.00;11.93;;;0.70;99.90;;;;;;4948765;28;20205;-92
2021/04/08 05:07:03;;;;;;;21.43;10.33;;;0.90;99.90;;;;;;4951513;28;20194;-88
2021/04/08 05:09:29;;;;;;;26.10;11.83;;;0.90;99.90;;;;;;4951663;28;20249;-89
2021/04/08 05:11:55;;;;;;;23.20;10.23;;;0.90;99.90;;;;;;4952726;28;20191;-90
2021/04/08 05:14:20;;;;;;;23.77;11.03;;;0.90;99.90;;;;;;4953032;28;20198;-89
2021/04/08 05:16:46;;;;;;;22.40;10.70;;;0.90;99.90;;;;;;4950103;28;20696;-92
2021/04/08 05:19:12;;;;;;;24.33;11.37;;;0.90;99.90;;;;;;4958385;28;20218;-93
2021/04/08 05:21:37;;;;;;;30.93;11.67;;;0.90;99.90;;;;;;4952645;28;20189;-92
2021/04/08 05:24:03;;;;;;;31.03;11.90;;;0.90;99.90;;;;;;4951682;28;20205;-91
2021/04/08 05:26:29;;;;;;;29.87;11.73;;;0.90;99.90;;;;;;4935392;29;20676;-91
2021/04/08 05:28:54;;;;;;;27.50;12.10;;;0.80;99.90;;;;;;4961042;28;20274;-92
2021/04/08 05:31:20;;;;;;;32.30;15.17;;;0.80;99.90;;;;;;4952470;28;20231;-91
2021/04/08 05:33:46;;;;;;;30.13;13.77;;;0.80;99.90;;;;;;4948122;28;20196;-93
2021/04/08 05:36:12;;;;;;;26.87;12.23;;;0.80;99.90;;;;;;4930010;29;20226;-94
2021/04/08 05:38:37;;;;;;;32.40;13.23;;;0.80;99.90;;;;;;4949842;29;20737;-93
2021/04/08 05:41:03;;;;;;;30.60;12.60;;;0.90;99.90;;;;;;4939016;29;20189;-94
2021/04/08 05:43:29;;;;;;;34.70;14.20;;;0.90;99.90;;;;;;4945919;29;20188;-95
2021/04/08 05:45:54;;;;;;;29.87;13.73;;;0.90;99.90;;;;;;4951189;29;20189;-93
2021/04/08 05:48:20;;;;;;;34.10;14.30;;;0.90;99.90;;;;;;4953765;28;20210;-95
2021/04/08 05:50:46;;;;;;;29.50;13.60;;;0.90;99.90;;;;;;4960004;29;20669;-93
2021/04/08 05:53:11;;;;;;;29.70;14.17;;;0.90;99.90;;;;;;4958594;29;20189;-93
2021/04/08 05:55:37;;;;;;;28.63;14.63;;;1.00;99.90;;;;;;4958880;29;20186;-94
2021/04/08 05:58:03;;;;;;;30.87;14.17;;;1.00;99.90;;;;;;4957567;29;20198;-94
2021/04/08 06:00:29;;;;;;;28.57;12.70;;;0.90;99.90;;;;;;4940958;29;20207;-95
2021/04/08 06:02:55;;;;;;;29.73;15.07;;;0.20;99.90;;;;;;4957296;29;20206;-88
2021/04/08 06:05:21;;;;;;;34.43;15.10;;;1.00;99.90;;;;;;4940981;29;20198;-89
2021/04/08 06:07:47;;;;;;;32.17;14.93;;;1.10;99.90;;;;;;4957243;29;20182;-88
2021/04/08 06:10:13;;;;;;;36.00;15.40;;;1.20;99.90;;;;;;4956667;28;20329;-92
2021/04/08 06:12:43;;;;;;;29.20;12.63;;;1.30;99.90;;;;;;4957832;29;20192;-89
2021/04/08 06:15:10;;;;;;;37.57;13.60;;;1.50;99.90;;;;;;4937606;29;20185;-89
2021/04/08 06:17:36;;;;;;;31.00;12.03;;;1.50;99.90;;;;;;4958089;29;20185;-88
2021/04/08 06:20:03;;;;;;;24.27;12.00;;;1.50;99.90;;;;;;4956918;29;20233;-88
2021/04/08 06:22:29;;;;;;;15.30;8.73;;;1.60;99.90;;;;;;4957617;29;20183;-90
2021/04/08 06:24:54;;;;;;;19.97;11.67;;;1.50;99.90;;;;;;4956881;29;20187;-89
2021/04/08 06:27:20;;;;;;;27.20;14.13;;;1.50;99.90;;;;;;4956410;29;20265;-90
2021/04/08 06:29:46;;;;;;;36.97;15.37;;;1.50;99.90;;;;;;4958099;29;20638;-90
2021/04/08 06:32:11;;;;;;;28.50;13.00;;;1.60;99.90;;;;;;4935615;29;20625;-88
2021/04/08 06:34:37;;;;;;;32.80;13.03;;;1.60;99.90;;;;;;4955684;29;20193;-85
2021/04/08 06:37:03;;;;;;;22.60;11.73;;;1.60;99.90;;;;;;4924700;29;20194;-87
2021/04/08 06:39:30;;;;;;;27.90;13.90;;;1.60;99.90;;;;;;4956027;29;20215;-88
2021/04/08 06:41:57;;;;;;;26.53;14.13;;;1.50;99.90;;;;;;4924167;29;20195;-88
2021/04/08 06:44:24;;;;;;;27.70;11.70;;;1.60;99.90;;;;;;4937735;29;20238;-91
2021/04/08 06:46:58;;;;;;;37.73;14.77;;;1.70;99.90;;;;;;4939574;29;20191;-89
2021/04/08 06:49:30;;;;;;;37.67;16.17;;;1.70;99.90;;;;;;4957951;29;20189;-91
2021/04/08 06:51:58;;;;;;;32.87;15.17;;;1.70;99.90;;;;;;4958780;29;20196;-92
2021/04/08 06:54:27;;;;;;;33.83;14.93;;;1.80;99.90;;;;;;4942428;29;20620;-91
2021/04/08 06:56:53;;;;;;;23.43;12.50;;;1.80;99.90;;;;;;4956820;29;20187;-89
2021/04/08 06:59:19;;;;;;;29.97;12.67;;;1.80;99.90;;;;;;4939636;28;20322;-87
2021/04/08 07:01:46;;;;;;;34.03;14.20;;;1.90;99.90;;;;;;4956146;29;20194;-88
2021/04/08 07:04:13;;;;;;;29.40;12.97;;;2.00;99.90;;;;;;4958790;29;20179;-92
2021/04/08 07:06:39;;;;;;;28.60;14.10;;;2.10;99.90;;;;;;4959601;29;20190;-92
2021/04/08 07:09:09;;;;;;;28.97;15.40;;;2.20;99.90;;;;;;4961472;29;20294;-90
2021/04/08 07:11:36;;;;;;;23.97;13.13;;;2.30;99.90;;;;;;4955784;29;20714;-92
2021/04/08 07:14:05;;;;;;;25.70;12.13;;;2.40;99.90;;;;;;4959460;29;20189;-91
2021/04/08 07:16:32;;;;;;;25.80;12.57;;;2.30;99.90;;;;;;4961000;29;20194;-92
2021/04/08 07:19:02;;;;;;;25.63;14.67;;;2.40;99.90;;;;;;4944060;29;20217;-93
2021/04/08 07:21:32;;;;;;;27.17;12.37;;;2.40;99.90;;;;;;4958657;29;20187;-92
2021/04/08 07:24:18;;;;;;;20.17;10.43;;;2.70;99.90;;;;;;4934866;29;20235;-92
2021/04/08 07:26:59;;;;;;;20.03;9.90;;;2.80;99.90;;;;;;4954478;29;20254;-93
2021/04/08 07:29:40;;;;;;;26.70;12.40;;;3.00;99.90;;;;;;4963863;29;20625;-89
2021/04/08 07:32:11;;;;;;;32.27;13.30;;;3.10;99.90;;;;;;4944886;29;20227;-91
2021/04/08 07:34:39;;;;;;;28.63;12.57;;;3.10;99.90;;;;;;4960222;29;20184;-91
2021/04/08 07:37:07;;;;;;;24.73;13.40;;;3.10;99.90;;;;;;4960575;29;20187;-90
2021/04/08 07:39:46;;;;;;;26.50;11.37;;;3.10;99.90;;;;;;4940970;29;20210;-89
2021/04/08 07:42:14;;;;;;;28.73;13.93;;;3.00;99.90;;;;;;4956363;29;20185;-90
2021/04/08 07:44:43;;;;;;;30.50;13.57;;;2.80;99.90;;;;;;4954551;29;20176;-93
2021/04/08 07:47:20;;;;;;;24.40;11.57;;;2.80;99.90;;;;;;4957955;29;20184;-88
2021/04/08 07:49:47;;;;;;;25.40;12.87;;;2.80;99.90;;;;;;4962790;29;20186;-92
2021/04/08 07:52:22;;;;;;;26.13;13.33;;;2.70;99.90;;;;;;4961215;29;20187;-92
2021/04/08 07:55:13;;;;;;;21.33;10.33;;;2.70;99.90;;;;;;4960173;29;20217;-93
2021/04/08 07:57:58;;;;;;;26.27;14.30;;;2.60;99.90;;;;;;4935915;29;20283;-94
2021/04/08 08:00:26;;;;;;;29.57;14.70;;;2.70;99.90;;;;;;4960566;29;20738;-93
2021/04/08 08:02:53;;;;;;;24.00;12.37;;;2.70;99.90;;;;;;4959241;29;20222;-92
2021/04/08 08:05:36;;;;;;;27.47;14.60;;;2.70;99.90;;;;;;4942966;29;20731;-94
2021/04/08 08:08:21;;;;;;;26.40;12.70;;;2.60;99.90;;;;;;4941666;29;20183;-94
2021/04/08 08:11:07;;;;;;;30.87;13.67;;;2.50;99.90;;;;;;4955762;28;20235;-93
2021/04/08 08:13:35;;;;;;;22.30;12.63;;;2.40;99.90;;;;;;4927667;29;20407;-90
2021/04/08 08:16:02;;;;;;;32.20;15.07;;;2.30;99.90;;;;;;4957372;29;20219;-89
2021/04/08 08:18:39;;;;;;;27.57;14.43;;;2.20;99.90;;;;;;4956280;29;20207;-93
2021/04/08 08:21:13;;;;;;;29.20;14.40;;;2.20;99.90;;;;;;4937577;29;20203;-91
2021/04/08 08:23:51;;;;;;;28.93;14.73;;;2.10;99.90;;;;;;4936476;29;20648;-90
2021/04/08 08:26:50;;;;;;;21.37;11.73;;;2.10;99.90;;;;;;4938732;29;20267;-91
2021/04/08 08:29:25;;;;;;;34.10;14.90;;;2.20;99.90;;;;;;4900846;29;20204;-89
2021/04/08 08:32:04;;;;;;;24.43;14.03;;;2.30;99.90;;;;;;4937761;29;20243;-90
2021/04/08 08:34:35;;;;;;;29.47;14.77;;;2.30;99.90;;;;;;4937593;29;20171;-92
2021/04/08 08:37:05;;;;;;;28.00;15.17;;;2.10;99.90;;;;;;4937530;29;20218;-89
2021/04/08 08:39:40;;;;;;;29.10;15.17;;;1.90;99.90;;;;;;4921746;29;20223;-91
2021/04/08 08:42:09;;;;;;;18.87;10.93;;;1.90;99.90;;;;;;4935976;29;20205;-91
2021/04/08 08:44:37;;;;;;;31.63;17.73;;;1.80;99.90;;;;;;4918916;29;20194;-91
2021/04/08 08:47:18;;;;;;;32.57;17.50;;;1.70;99.90;;;;;;4918878;29;20279;-92
2021/04/08 08:49:50;;;;;;;31.67;18.00;;;1.60;99.90;;;;;;4918942;29;20573;-91
2021/04/08 08:52:39;;;;;;;44.43;20.50;;;1.70;99.90;;;;;;4936258;29;20636;-91
2021/04/08 08:55:08;;;;;;;41.70;20.57;;;1.80;99.90;;;;;;4936009;29;20187;-90
2021/04/08 08:57:35;;;;;;;45.53;22.87;;;1.80;99.90;;;;;;4918913;29;20194;-90
2021/04/08 09:00:01;;;;;;;34.57;17.37;;;1.70;99.90;;;;;;4934251;29;20208;-89
2021/04/08 09:02:27;;;;;;;38.10;19.77;;;1.80;99.90;;;;;;4935076;29;20187;-91
2021/04/08 09:04:54;;;;;;;39.20;21.73;;;1.80;99.90;;;;;;4918779;29;20610;-89
2021/04/08 09:07:20;;;;;;;32.63;16.50;;;1.80;99.90;;;;;;4934316;29;20180;-90
2021/04/08 09:09:51;;;;;;;35.27;18.03;;;1.50;99.90;;;;;;4934306;29;20291;-90
2021/04/08 09:12:18;;;;;;;33.77;17.80;;;1.70;99.90;;;;;;4918735;29;20280;-88
2021/04/08 09:14:48;;;;;;;35.47;17.57;;;1.70;99.90;;;;;;4918732;29;20669;-88
2021/04/08 09:17:39;;;;;;;39.07;20.20;;;1.70;99.90;;;;;;4936005;29;20614;-91
2021/04/08 09:20:10;;;;;;;27.27;15.50;;;1.60;99.90;;;;;;4936458;29;20215;-93
2021/04/08 09:22:59;;;;;;;38.60;20.13;;;1.70;99.90;;;;;;4918219;29;20190;-90
2021/04/08 09:25:33;;;;;;;39.90;20.00;;;1.80;99.90;;;;;;4920345;29;20591;-93
2021/04/08 09:28:09;;;;;;;37.67;20.67;;;1.60;99.90;;;;;;4935788;29;20183;-91
2021/04/08 09:33:39;;;;;;;29.73;15.37;;;1.40;99.90;;;;;;4936159;29;20192;-89
2021/04/08 09:36:24;;;;;;;39.80;20.70;;;1.40;99.90;;;;;;4936456;29;20180;-92
2021/04/08 09:39:10;;;;;;;78.90;51.20;;;1.40;99.90;;;;;;4934864;29;20274;-89
2021/04/08 09:41:42;;;;;;;122.93;75.53;;;1.30;99.90;;;;;;4914408;29;20196;-92
2021/04/08 09:44:09;;;;;;;116.70;61.23;;;1.30;99.90;;;;;;4935405;29;20540;-88
2021/04/08 09:46:44;;;;;;;55.67;29.13;;;1.40;99.90;;;;;;4935358;29;20183;-89
2021/04/08 09:49:10;;;;;;;44.23;26.63;;;1.50;99.90;;;;;;4934609;29;20270;-88
2021/04/08 09:51:41;;;;;;;38.70;19.07;;;1.50;99.90;;;;;;4949305;29;20198;-90
2021/04/08 09:54:13;;;;;;;34.40;21.77;;;1.60;99.90;;;;;;4939800;29;20664;-90
2021/04/08 09:56:55;;;;;;;33.37;17.80;;;1.70;99.90;;;;;;4956515;29;20190;-88
2021/04/08 09:59:24;;;;;;;39.17;22.30;;;1.70;99.90;;;;;;4934563;29;20722;-87
2021/04/08 10:01:51;;;;;;;36.93;19.57;;;1.70;99.90;;;;;;4938508;29;20187;-90
2021/04/08 10:04:21;;;;;;;45.30;24.60;;;1.70;99.90;;;;;;4929303;29;20179;-91
2021/04/08 10:06:58;;;;;;;40.37;22.37;;;1.70;99.90;;;;;;4951657;29;20206;-91
2021/04/08 10:09:24;;;;;;;18.90;11.00;;;1.80;99.90;;;;;;4952527;29;20233;-90
2021/04/08 10:11:50;;;;;;;40.53;24.13;;;1.90;99.90;;;;;;4928016;29;20667;-89
2021/04/08 10:14:20;;;;;;;46.13;22.77;;;1.90;99.90;;;;;;4950744;29;20201;-89
2021/04/08 10:16:59;;;;;;;43.23;22.67;;;2.00;99.90;;;;;;4931138;29;20187;-88
2021/04/08 10:19:50;;;;;;;43.87;22.33;;;2.10;99.90;;;;;;4948112;28;20250;-91
2021/04/08 10:22:16;;;;;;;39.37;20.33;;;2.10;99.90;;;;;;4949942;29;20296;-89
2021/04/08 10:24:44;;;;;;;38.50;21.40;;;2.30;99.90;;;;;;4945271;28;20617;-91
2021/04/08 10:27:16;;;;;;;38.17;19.93;;;2.30;99.90;;;;;;4927175;29;20222;-90
2021/04/08 10:29:42;;;;;;;23.70;15.53;;;2.40;99.90;;;;;;4931466;29;20557;-90
2021/04/08 10:32:08;;;;;;;38.57;20.17;;;2.50;99.90;;;;;;4947053;29;20218;-89
2021/04/08 10:34:39;;;;;;;34.53;17.17;;;2.60;99.90;;;;;;4941431;29;20187;-89
2021/04/08 10:37:06;;;;;;;34.47;20.20;;;2.70;99.90;;;;;;4959343;29;20207;-91
2021/04/08 10:39:34;;;;;;;35.27;20.47;;;2.70;99.90;;;;;;4942801;29;20211;-88
2021/04/08 10:42:12;;;;;;;30.23;17.17;;;2.80;99.90;;;;;;4939926;29;20293;-90
2021/04/08 10:44:46;;;;;;;32.03;17.73;;;3.00;99.90;;;;;;4957697;29;20203;-89
2021/04/08 10:47:26;;;;;;;31.73;20.17;;;3.10;99.90;;;;;;4953550;29;20183;-90
2021/04/08 10:50:00;;;;;;;34.67;15.93;;;3.20;99.90;;;;;;4956163;29;20221;-90
2021/04/08 10:52:31;;;;;;;27.53;15.30;;;3.30;99.90;;;;;;4958925;29;20212;-91
2021/04/08 10:55:03;;;;;;;29.67;17.73;;;3.50;99.90;;;;;;4958741;29;20187;-91
2021/04/08 10:57:30;;;;;;;23.00;13.93;;;3.90;99.90;;;;;;4950563;29;20244;-91
2021/04/08 10:59:56;;;;;;;28.33;15.50;;;3.90;99.90;;;;;;4954108;29;20222;-93
2021/04/08 11:02:25;;;;;;;24.73;14.60;;;4.00;99.90;;;;;;4944183;29;20249;-91
2021/04/08 11:04:53;;;;;;;24.53;14.27;;;4.20;99.90;;;;;;4955267;28;20233;-91
2021/04/08 11:07:20;;;;;;;22.63;12.73;;;4.30;99.90;;;;;;4922388;29;20339;-90
2021/04/08 11:09:47;;;;;;;23.27;14.37;;;4.30;99.90;;;;;;4932848;29;20300;-90
2021/04/08 11:12:18;;;;;;;24.90;13.10;;;4.40;99.90;;;;;;4932862;29;20225;-89
2021/04/08 11:14:54;;;;;;;17.10;9.80;;;4.40;99.90;;;;;;4937308;29;20198;-91
2021/04/08 11:17:21;;;;;;;16.90;10.17;;;4.40;99.90;;;;;;4937764;29;20204;-90
2021/04/08 11:19:48;;;;;;;13.47;8.33;;;4.40;99.90;;;;;;4931561;29;20226;-93
2021/04/08 11:22:16;;;;;;;16.87;10.33;;;4.30;99.90;;;;;;4945648;29;20180;-93
2021/04/08 11:24:44;;;;;;;13.00;8.30;;;4.40;99.90;;;;;;4942258;29;20241;-91
2021/04/08 11:27:10;;;;;;;14.77;9.23;;;4.50;99.90;;;;;;4938820;29;20286;-88
2021/04/08 11:29:36;;;;;;;18.83;10.30;;;4.80;99.90;;;;;;4952144;29;20231;-92
2021/04/08 11:32:10;;;;;;;17.10;8.77;;;4.70;99.90;;;;;;4942143;29;20195;-91
2021/04/08 11:34:59;;;;;;;15.70;10.00;;;4.70;99.90;;;;;;4941609;29;20261;-90
2021/04/08 11:37:34;;;;;;;15.43;8.87;;;4.70;99.90;;;;;;4937155;29;20195;-92
2021/04/08 11:40:02;;;;;;;31.40;19.43;;;4.90;99.90;;;;;;4938446;29;20207;-90
2021/04/08 11:42:37;;;;;;;18.67;12.13;;;5.00;99.90;;;;;;4939363;29;20273;-91
2021/04/08 11:45:26;;;;;;;14.47;10.37;;;5.00;99.90;;;;;;4942285;29;20682;-90
2021/04/08 11:48:06;;;;;;;24.40;15.50;;;5.10;99.90;;;;;;4938632;29;20718;-90
2021/04/08 11:50:38;;;;;;;15.00;8.87;;;5.20;99.90;;;;;;4938064;29;20199;-90
2021/04/08 11:53:37;;;;;;;14.80;8.40;;;5.50;99.90;;;;;;4936262;29;20189;-91
2021/04/08 11:56:04;;;;;;;11.20;7.30;;;5.80;99.90;;;;;;4936240;29;20195;-91
2021/04/08 11:58:32;;;;;;;15.70;11.20;;;6.00;99.90;;;;;;4941476;29;20179;-93
2021/04/08 12:01:11;;;;;;;16.63;10.47;;;6.20;99.90;;;;;;4937535;29;20183;-91
2021/04/08 12:03:45;;;;;;;11.07;6.30;;;6.40;99.90;;;;;;4937853;29;20175;-91
2021/04/08 12:06:13;;;;;;;16.53;7.87;;;6.50;99.90;;;;;;4954870;29;20179;-89
2021/04/08 12:09:06;;;;;;;8.40;7.17;;;6.60;99.90;;;;;;4942573;29;20684;-92
2021/04/08 12:11:54;;;;;;;13.30;7.63;;;6.50;99.90;;;;;;4941128;29;20195;-91
2021/04/08 12:14:20;;;;;;;11.47;7.37;;;6.40;99.90;;;;;;4957591;29;20176;-91
2021/04/08 12:17:09;;;;;;;13.33;7.17;;;6.10;99.90;;;;;;4958171;29;20186;-91
2021/04/08 12:19:37;;;;;;;18.93;9.73;;;6.00;99.90;;;;;;4940123;29;20219;-91
2021/04/08 12:22:09;;;;;;;24.17;13.60;;;6.10;99.90;;;;;;4942228;29;20187;-92
2021/04/08 12:24:38;;;;;;;10.20;4.80;;;6.10;99.90;;;;;;4956977;29;20178;-92
2021/04/08 12:27:25;;;;;;;16.10;9.87;;;6.10;99.90;;;;;;4939979;29;20641;-91
2021/04/08 12:29:50;;;;;;;12.80;8.00;;;6.10;99.90;;;;;;4956245;29;20281;-91
2021/04/08 12:32:27;;;;;;;17.73;10.13;;;6.10;99.90;;;;;;4938497;29;20278;-92
2021/04/08 12:34:53;;;;;;;8.87;5.27;;;6.00;99.90;;;;;;4939987;29;20269;-91
2021/04/08 12:37:18;;;;;;;9.73;5.30;;;6.00;99.90;;;;;;4956762;29;20180;-90
2021/04/08 12:39:44;;;;;;;14.03;6.60;;;6.20;99.90;;;;;;4939089;29;20242;-92
2021/04/08 12:42:10;;;;;;;10.87;6.73;;;6.70;99.90;;;;;;4938663;29;20183;-91
2021/04/08 12:44:36;;;;;;;13.97;7.57;;;6.90;99.90;;;;;;4941108;29;20184;-92
2021/04/08 12:47:01;;;;;;;8.67;5.53;;;6.90;99.90;;;;;;4937720;29;20251;-91
2021/04/08 12:49:27;;;;;;;11.00;6.40;;;6.70;99.90;;;;;;4938563;29;20226;-91
2021/04/08 12:51:53;;;;;;;12.57;7.03;;;6.50;99.90;;;;;;4952079;29;20723;-91
2021/04/08 12:54:18;;;;;;;10.43;6.57;;;6.50;99.90;;;;;;4957563;29;20198;-95
2021/04/08 12:56:44;;;;;;;9.73;6.53;;;6.70;99.90;;;;;;4925043;29;20303;-94